sensor_id;sensor_type;location;lat;lon;timestamp;P1;durP1;ratioP1;P2;durP2;ratioP2
63324;SDS011;49451;52.390;13.028;2023-03-14T04:00:10;1.58;;;0.40;;
63324;SDS011;49451;52.390;13.028;2023-03-14T04:02:37;3.60;;;0.40;;
63324;SDS011;49451;52.390;13.028;2023-03-14T04:05:03;1.10;;;0.60;;
63324;SDS011;49451;52.390;13.028;2023-03-14T04:07:30;1.58;;;0.98;;
63324;SDS011;49451;52.390;13.028;2023-03-14T04:09:56;1.05;;;0.60;;
63324;SDS011;49451;52.390;13.028;2023-03-14T04:12:22;2.42;;;0.60;;
63324;SDS011;49451;52.390;13.028;2023-03-14T04:14:47;0.80;;;0.50;;
63324;SDS011;49451;52.390;13.028;2023-03-14T04:17:13;1.92;;;0.80;;
63324;SDS011;49451;52.390;13.028;2023-03-14T04:19:38;1.55;;;0.70;;
63324;SDS011;49451;52.390;13.028;2023-03-14T04:22:03;1.27;;;0.50;;
63324;SDS011;49451;52.390;13.028;2023-03-14T04:24:29;2.42;;;0.80;;
63324;SDS011;49451;52.390;13.028;2023-03-14T04:26:54;1.55;;;0.70;;
63324;SDS011;49451;52.390;13.028;2023-03-14T04:29:19;3.05;;;0.95;;
63324;SDS011;49451;52.390;13.028;2023-03-14T04:31:45;0.90;;;0.52;;
63324;SDS011;49451;52.390;13.028;2023-03-14T04:34:10;1.23;;;0.60;;
63324;SDS011;49451;52.390;13.028;2023-03-14T04:36:36;1.25;;;0.80;;
63324;SDS011;49451;52.390;13.028;2023-03-14T04:39:01;8.07;;;0.52;;
63324;SDS011;49451;52.390;13.028;2023-03-14T04:41:27;1.63;;;0.47;;
63324;SDS011;49451;52.390;13.028;2023-03-14T04:43:52;1.33;;;0.80;;
63324;SDS011;49451;52.390;13.028;2023-03-14T04:46:17;0.90;;;0.50;;
63324;SDS011;49451;52.390;13.028;2023-03-14T04:48:43;0.85;;;0.57;;
63324;SDS011;49451;52.390;13.028;2023-03-14T04:51:08;1.38;;;0.43;;
63324;SDS011;49451;52.390;13.028;2023-03-14T04:53:33;1.17;;;0.57;;
63324;SDS011;49451;52.390;13.028;2023-03-14T04:55:59;0.80;;;0.60;;
63324;SDS011;49451;52.390;13.028;2023-03-14T04:58:25;2.28;;;0.77;;
63324;SDS011;49451;52.390;13.028;2023-03-14T05:00:50;1.55;;;0.63;;
63324;SDS011;49451;52.390;13.028;2023-03-14T05:03:16;1.10;;;0.60;;
63324;SDS011;49451;52.390;13.028;2023-03-14T05:05:42;3.75;;;2.30;;
63324;SDS011;49451;52.390;13.028;2023-03-14T05:08:08;1.38;;;0.50;;
63324;SDS011;49451;52.390;13.028;2023-03-14T05:10:33;0.68;;;0.55;;
63324;SDS011;49451;52.390;13.028;2023-03-14T05:12:59;1.75;;;0.80;;
63324;SDS011;49451;52.390;13.028;2023-03-14T05:15:24;2.05;;;0.57;;
63324;SDS011;49451;52.390;13.028;2023-03-14T05:17:49;1.63;;;0.70;;
63324;SDS011;49451;52.390;13.028;2023-03-14T05:20:15;0.90;;;0.40;;
63324;SDS011;49451;52.390;13.028;2023-03-14T05:22:41;1.25;;;0.73;;
63324;SDS011;49451;52.390;13.028;2023-03-14T05:25:06;2.15;;;0.63;;
63324;SDS011;49451;52.390;13.028;2023-03-14T05:27:32;3.25;;;0.80;;
63324;SDS011;49451;52.390;13.028;2023-03-14T05:29:58;3.75;;;0.68;;
63324;SDS011;49451;52.390;13.028;2023-03-14T05:32:23;0.60;;;0.32;;
63324;SDS011;49451;52.390;13.028;2023-03-14T05:34:49;0.77;;;0.50;;
63324;SDS011;49451;52.390;13.028;2023-03-14T05:37:14;3.00;;;0.93;;
63324;SDS011;49451;52.390;13.028;2023-03-14T05:39:39;2.13;;;0.80;;
63324;SDS011;49451;52.390;13.028;2023-03-14T05:42:05;8.10;;;1.60;;
63324;SDS011;49451;52.390;13.028;2023-03-14T05:44:30;1.42;;;0.73;;
63324;SDS011;49451;52.390;13.028;2023-03-14T05:46:55;1.65;;;0.70;;
63324;SDS011;49451;52.390;13.028;2023-03-14T05:49:21;1.13;;;0.60;;
63324;SDS011;49451;52.390;13.028;2023-03-14T05:51:46;2.88;;;0.60;;
63324;SDS011;49451;52.390;13.028;2023-03-14T05:54:12;1.85;;;0.88;;
63324;SDS011;49451;52.390;13.028;2023-03-14T05:56:37;10.88;;;0.80;;
63324;SDS011;49451;52.390;13.028;2023-03-14T05:59:02;3.03;;;0.90;;
63324;SDS011;49451;52.390;13.028;2023-03-14T06:01:28;3.05;;;0.80;;
63324;SDS011;49451;52.390;13.028;2023-03-14T06:03:54;1.42;;;0.50;;
63324;SDS011;49451;52.390;13.028;2023-03-14T06:06:19;1.17;;;0.40;;
63324;SDS011;49451;52.390;13.028;2023-03-14T06:08:45;3.65;;;1.10;;
63324;SDS011;49451;52.390;13.028;2023-03-14T06:11:10;1.95;;;0.80;;
63324;SDS011;49451;52.390;13.028;2023-03-14T06:13:35;3.95;;;0.90;;
63324;SDS011;49451;52.390;13.028;2023-03-14T06:16:01;2.17;;;0.80;;
63324;SDS011;49451;52.390;13.028;2023-03-14T06:18:26;4.05;;;0.85;;
63324;SDS011;49451;52.390;13.028;2023-03-14T06:20:55;3.75;;;0.80;;
63324;SDS011;49451;52.390;13.028;2023-03-14T06:23:21;1.67;;;0.80;;
63324;SDS011;49451;52.390;13.028;2023-03-14T06:25:47;5.93;;;0.90;;
63324;SDS011;49451;52.390;13.028;2023-03-14T06:28:12;2.15;;;0.70;;
63324;SDS011;49451;52.390;13.028;2023-03-14T06:30:38;2.65;;;1.00;;
63324;SDS011;49451;52.390;13.028;2023-03-14T06:33:03;3.00;;;0.70;;
63324;SDS011;49451;52.390;13.028;2023-03-14T06:35:28;5.15;;;1.25;;
63324;SDS011;49451;52.390;13.028;2023-03-14T06:37:54;2.60;;;0.70;;
63324;SDS011;49451;52.390;13.028;2023-03-14T06:40:19;1.45;;;0.65;;
63324;SDS011;49451;52.390;13.028;2023-03-14T06:42:45;2.47;;;0.88;;
63324;SDS011;49451;52.390;13.028;2023-03-14T06:45:10;2.70;;;1.00;;
63324;SDS011;49451;52.390;13.028;2023-03-14T06:47:36;6.90;;;0.90;;
63324;SDS011;49451;52.390;13.028;2023-03-14T06:50:03;5.45;;;0.98;;
63324;SDS011;49451;52.390;13.028;2023-03-14T06:52:29;7.15;;;0.75;;
63324;SDS011;49451;52.390;13.028;2023-03-14T06:54:55;2.25;;;0.70;;
63324;SDS011;49451;52.390;13.028;2023-03-14T06:57:21;3.00;;;0.82;;
63324;SDS011;49451;52.390;13.028;2023-03-14T06:59:47;6.18;;;1.02;;
63324;SDS011;49451;52.390;13.028;2023-03-14T07:02:12;6.93;;;1.10;;
63324;SDS011;49451;52.390;13.028;2023-03-14T07:04:38;3.25;;;0.82;;
63324;SDS011;49451;52.390;13.028;2023-03-14T07:07:04;5.07;;;1.48;;
63324;SDS011;49451;52.390;13.028;2023-03-14T07:09:30;4.63;;;0.98;;
63324;SDS011;49451;52.390;13.028;2023-03-14T07:11:56;8.13;;;1.02;;
63324;SDS011;49451;52.390;13.028;2023-03-14T07:14:21;4.43;;;0.90;;
63324;SDS011;49451;52.390;13.028;2023-03-14T07:16:47;2.67;;;0.98;;
63324;SDS011;49451;52.390;13.028;2023-03-14T07:19:12;1.35;;;0.80;;
63324;SDS011;49451;52.390;13.028;2023-03-14T07:21:37;4.40;;;1.10;;
63324;SDS011;49451;52.390;13.028;2023-03-14T07:24:03;4.93;;;0.82;;
63324;SDS011;49451;52.390;13.028;2023-03-14T07:26:29;4.53;;;1.20;;
63324;SDS011;49451;52.390;13.028;2023-03-14T07:28:54;2.83;;;1.00;;
63324;SDS011;49451;52.390;13.028;2023-03-14T07:31:19;4.43;;;1.45;;
63324;SDS011;49451;52.390;13.028;2023-03-14T07:33:45;5.13;;;0.85;;
63324;SDS011;49451;52.390;13.028;2023-03-14T07:36:10;7.05;;;1.02;;
63324;SDS011;49451;52.390;13.028;2023-03-14T07:38:36;5.35;;;0.90;;
63324;SDS011;49451;52.390;13.028;2023-03-14T07:41:02;4.97;;;0.80;;
63324;SDS011;49451;52.390;13.028;2023-03-14T07:43:29;6.80;;;0.98;;
63324;SDS011;49451;52.390;13.028;2023-03-14T07:45:54;4.63;;;1.02;;
63324;SDS011;49451;52.390;13.028;2023-03-14T07:48:20;7.20;;;1.00;;
63324;SDS011;49451;52.390;13.028;2023-03-14T07:50:50;3.80;;;0.90;;
63324;SDS011;49451;52.390;13.028;2023-03-14T07:53:16;6.38;;;1.00;;
63324;SDS011;49451;52.390;13.028;2023-03-14T07:55:42;3.08;;;0.70;;
63324;SDS011;49451;52.390;13.028;2023-03-14T07:58:08;4.93;;;0.90;;
63324;SDS011;49451;52.390;13.028;2023-03-14T08:00:33;3.92;;;1.05;;
63324;SDS011;49451;52.390;13.028;2023-03-14T08:02:58;3.55;;;1.17;;
63324;SDS011;49451;52.390;13.028;2023-03-14T08:05:24;6.43;;;1.15;;
63324;SDS011;49451;52.390;13.028;2023-03-14T08:07:49;7.47;;;1.27;;
63324;SDS011;49451;52.390;13.028;2023-03-14T08:10:15;3.13;;;0.90;;
63324;SDS011;49451;52.390;13.028;2023-03-14T08:12:50;4.15;;;0.73;;
63324;SDS011;49451;52.390;13.028;2023-03-14T08:15:19;3.53;;;0.85;;
63324;SDS011;49451;52.390;13.028;2023-03-14T08:17:45;5.47;;;1.20;;
63324;SDS011;49451;52.390;13.028;2023-03-14T08:20:15;3.60;;;0.88;;
63324;SDS011;49451;52.390;13.028;2023-03-14T08:22:44;3.95;;;0.85;;
63324;SDS011;49451;52.390;13.028;2023-03-14T08:25:10;7.25;;;1.40;;
63324;SDS011;49451;52.390;13.028;2023-03-14T08:27:35;4.40;;;0.77;;
63324;SDS011;49451;52.390;13.028;2023-03-14T08:30:03;2.50;;;0.70;;
63324;SDS011;49451;52.390;13.028;2023-03-14T08:32:30;2.75;;;0.80;;
63324;SDS011;49451;52.390;13.028;2023-03-14T08:34:55;2.35;;;0.77;;
63324;SDS011;49451;52.390;13.028;2023-03-14T08:37:21;5.47;;;1.05;;
63324;SDS011;49451;52.390;13.028;2023-03-14T08:39:49;3.08;;;0.98;;
63324;SDS011;49451;52.390;13.028;2023-03-14T08:42:14;5.80;;;1.02;;
63324;SDS011;49451;52.390;13.028;2023-03-14T08:44:40;6.30;;;1.38;;
63324;SDS011;49451;52.390;13.028;2023-03-14T08:47:05;2.97;;;0.80;;
63324;SDS011;49451;52.390;13.028;2023-03-14T08:49:30;2.92;;;0.70;;
63324;SDS011;49451;52.390;13.028;2023-03-14T08:51:56;4.45;;;0.85;;
63324;SDS011;49451;52.390;13.028;2023-03-14T08:54:21;3.75;;;1.00;;
63324;SDS011;49451;52.390;13.028;2023-03-14T08:56:46;5.90;;;1.30;;
63324;SDS011;49451;52.390;13.028;2023-03-14T08:59:12;4.43;;;0.80;;
63324;SDS011;49451;52.390;13.028;2023-03-14T09:01:37;9.02;;;1.30;;
63324;SDS011;49451;52.390;13.028;2023-03-14T09:04:03;3.83;;;0.98;;
63324;SDS011;49451;52.390;13.028;2023-03-14T09:06:28;4.72;;;0.70;;
63324;SDS011;49451;52.390;13.028;2023-03-14T09:08:53;4.22;;;1.17;;
63324;SDS011;49451;52.390;13.028;2023-03-14T09:11:19;5.38;;;0.70;;
63324;SDS011;49451;52.390;13.028;2023-03-14T09:13:44;8.05;;;1.17;;
63324;SDS011;49451;52.390;13.028;2023-03-14T09:16:10;2.45;;;0.80;;
63324;SDS011;49451;52.390;13.028;2023-03-14T09:18:35;7.05;;;1.27;;
63324;SDS011;49451;52.390;13.028;2023-03-14T09:21:01;4.35;;;0.88;;
63324;SDS011;49451;52.390;13.028;2023-03-14T09:23:27;2.38;;;0.70;;
63324;SDS011;49451;52.390;13.028;2023-03-14T09:25:59;7.50;;;0.95;;
63324;SDS011;49451;52.390;13.028;2023-03-14T09:28:25;7.75;;;0.90;;
63324;SDS011;49451;52.390;13.028;2023-03-14T09:30:51;2.05;;;0.70;;
63324;SDS011;49451;52.390;13.028;2023-03-14T09:33:16;5.40;;;0.73;;
63324;SDS011;49451;52.390;13.028;2023-03-14T09:35:42;4.03;;;0.90;;
63324;SDS011;49451;52.390;13.028;2023-03-14T09:38:08;7.88;;;1.05;;
63324;SDS011;49451;52.390;13.028;2023-03-14T09:40:34;4.85;;;0.90;;
63324;SDS011;49451;52.390;13.028;2023-03-14T09:43:00;7.47;;;1.10;;
63324;SDS011;49451;52.390;13.028;2023-03-14T09:45:28;5.78;;;1.00;;
63324;SDS011;49451;52.390;13.028;2023-03-14T09:47:56;3.22;;;0.80;;
63324;SDS011;49451;52.390;13.028;2023-03-14T09:50:23;4.45;;;0.80;;
63324;SDS011;49451;52.390;13.028;2023-03-14T09:52:51;4.20;;;1.10;;
63324;SDS011;49451;52.390;13.028;2023-03-14T09:55:21;2.78;;;0.90;;
63324;SDS011;49451;52.390;13.028;2023-03-14T09:57:48;3.03;;;0.75;;
63324;SDS011;49451;52.390;13.028;2023-03-14T10:00:23;4.28;;;1.02;;
63324;SDS011;49451;52.390;13.028;2023-03-14T10:02:55;2.90;;;0.63;;
63324;SDS011;49451;52.390;13.028;2023-03-14T10:05:24;3.08;;;0.70;;
63324;SDS011;49451;52.390;13.028;2023-03-14T10:07:50;4.22;;;0.90;;
63324;SDS011;49451;52.390;13.028;2023-03-14T10:10:19;4.95;;;1.00;;
63324;SDS011;49451;52.390;13.028;2023-03-14T10:12:47;5.30;;;0.65;;
63324;SDS011;49451;52.390;13.028;2023-03-14T10:15:22;2.47;;;0.68;;
63324;SDS011;49451;52.390;13.028;2023-03-14T10:17:55;4.13;;;0.57;;
63324;SDS011;49451;52.390;13.028;2023-03-14T10:20:31;1.52;;;0.70;;
63324;SDS011;49451;52.390;13.028;2023-03-14T10:23:07;4.35;;;0.80;;
63324;SDS011;49451;52.390;13.028;2023-03-14T10:26:07;4.10;;;0.63;;
63324;SDS011;49451;52.390;13.028;2023-03-14T10:28:39;4.22;;;0.70;;
63324;SDS011;49451;52.390;13.028;2023-03-14T10:31:08;5.15;;;0.60;;
63324;SDS011;49451;52.390;13.028;2023-03-14T10:33:34;5.32;;;0.90;;
63324;SDS011;49451;52.390;13.028;2023-03-14T10:36:02;3.22;;;0.73;;
63324;SDS011;49451;52.390;13.028;2023-03-14T10:38:29;2.05;;;0.70;;
63324;SDS011;49451;52.390;13.028;2023-03-14T10:40:56;5.07;;;0.98;;
63324;SDS011;49451;52.390;13.028;2023-03-14T10:43:33;7.50;;;1.05;;
63324;SDS011;49451;52.390;13.028;2023-03-14T10:48:39;2.95;;;0.60;;
63324;SDS011;49451;52.390;13.028;2023-03-14T10:53:46;2.90;;;0.60;;
63324;SDS011;49451;52.390;13.028;2023-03-14T10:56:17;4.75;;;1.10;;
63324;SDS011;49451;52.390;13.028;2023-03-14T10:58:48;4.13;;;0.88;;
63324;SDS011;49451;52.390;13.028;2023-03-14T11:03:51;1.98;;;0.45;;
63324;SDS011;49451;52.390;13.028;2023-03-14T11:09:06;2.35;;;0.80;;
63324;SDS011;49451;52.390;13.028;2023-03-14T11:11:39;3.38;;;0.63;;
63324;SDS011;49451;52.390;13.028;2023-03-14T11:22:40;3.65;;;0.60;;
63324;SDS011;49451;52.390;13.028;2023-03-14T11:25:33;3.80;;;0.70;;
63324;SDS011;49451;52.390;13.028;2023-03-14T11:28:21;2.25;;;0.52;;
63324;SDS011;49451;52.390;13.028;2023-03-14T11:30:52;1.20;;;0.52;;
63324;SDS011;49451;52.390;13.028;2023-03-14T11:33:24;2.65;;;0.88;;
63324;SDS011;49451;52.390;13.028;2023-03-14T11:36:07;5.10;;;0.60;;
63324;SDS011;49451;52.390;13.028;2023-03-14T11:38:42;1.70;;;0.60;;
63324;SDS011;49451;52.390;13.028;2023-03-14T11:41:20;2.75;;;0.85;;
63324;SDS011;49451;52.390;13.028;2023-03-14T11:44:25;1.87;;;0.47;;
63324;SDS011;49451;52.390;13.028;2023-03-14T11:47:06;4.75;;;0.68;;
63324;SDS011;49451;52.390;13.028;2023-03-14T11:57:40;2.20;;;0.57;;
63324;SDS011;49451;52.390;13.028;2023-03-14T12:11:57;1.27;;;0.60;;
63324;SDS011;49451;52.390;13.028;2023-03-14T12:14:35;2.97;;;1.58;;
63324;SDS011;49451;52.390;13.028;2023-03-14T12:17:06;2.38;;;1.27;;
63324;SDS011;49451;52.390;13.028;2023-03-14T12:19:43;1.40;;;0.50;;
63324;SDS011;49451;52.390;13.028;2023-03-14T12:24:56;0.65;;;0.40;;
63324;SDS011;49451;52.390;13.028;2023-03-14T12:30:45;2.15;;;0.50;;
63324;SDS011;49451;52.390;13.028;2023-03-14T12:35:46;1.88;;;0.40;;
63324;SDS011;49451;52.390;13.028;2023-03-14T12:43:45;2.50;;;0.43;;
63324;SDS011;49451;52.390;13.028;2023-03-14T12:48:42;1.35;;;0.55;;
63324;SDS011;49451;52.390;13.028;2023-03-14T12:51:14;1.23;;;0.30;;
63324;SDS011;49451;52.390;13.028;2023-03-14T13:02:10;1.75;;;0.40;;
63324;SDS011;49451;52.390;13.028;2023-03-14T13:04:54;1.40;;;0.73;;
63324;SDS011;49451;52.390;13.028;2023-03-14T13:08:09;2.38;;;0.70;;
63324;SDS011;49451;52.390;13.028;2023-03-14T13:10:25;5.22;;;0.52;;
63324;SDS011;49451;52.390;13.028;2023-03-14T13:12:56;2.38;;;0.40;;
63324;SDS011;49451;52.390;13.028;2023-03-14T13:18:11;0.95;;;0.30;;
63324;SDS011;49451;52.390;13.028;2023-03-14T13:23:25;1.17;;;0.40;;
63324;SDS011;49451;52.390;13.028;2023-03-14T13:25:52;1.55;;;0.40;;
63324;SDS011;49451;52.390;13.028;2023-03-14T13:28:18;0.70;;;0.30;;
63324;SDS011;49451;52.390;13.028;2023-03-14T13:30:45;0.70;;;0.20;;
63324;SDS011;49451;52.390;13.028;2023-03-14T13:33:14;1.65;;;0.45;;
63324;SDS011;49451;52.390;13.028;2023-03-14T13:35:47;1.50;;;0.60;;
63324;SDS011;49451;52.390;13.028;2023-03-14T13:38:20;1.90;;;0.77;;
63324;SDS011;49451;52.390;13.028;2023-03-14T13:40:49;1.35;;;0.75;;
63324;SDS011;49451;52.390;13.028;2023-03-14T13:45:56;0.68;;;0.40;;
63324;SDS011;49451;52.390;13.028;2023-03-14T13:48:30;0.77;;;0.35;;
63324;SDS011;49451;52.390;13.028;2023-03-14T13:50:59;1.95;;;0.20;;
63324;SDS011;49451;52.390;13.028;2023-03-14T13:53:28;2.50;;;0.32;;
63324;SDS011;49451;52.390;13.028;2023-03-14T13:55:53;0.28;;;0.22;;
63324;SDS011;49451;52.390;13.028;2023-03-14T13:58:20;0.90;;;0.40;;
63324;SDS011;49451;52.390;13.028;2023-03-14T14:00:54;8.25;;;0.47;;
63324;SDS011;49451;52.390;13.028;2023-03-14T14:03:30;0.65;;;0.32;;
63324;SDS011;49451;52.390;13.028;2023-03-14T14:05:57;0.82;;;0.50;;
63324;SDS011;49451;52.390;13.028;2023-03-14T14:08:23;3.53;;;0.30;;
63324;SDS011;49451;52.390;13.028;2023-03-14T14:10:49;1.05;;;0.38;;
63324;SDS011;49451;52.390;13.028;2023-03-14T14:13:16;0.85;;;0.30;;
63324;SDS011;49451;52.390;13.028;2023-03-14T14:15:47;0.90;;;0.35;;
63324;SDS011;49451;52.390;13.028;2023-03-14T14:18:17;1.58;;;0.40;;
63324;SDS011;49451;52.390;13.028;2023-03-14T14:20:46;2.65;;;0.28;;
63324;SDS011;49451;52.390;13.028;2023-03-14T14:23:14;0.90;;;0.30;;
63324;SDS011;49451;52.390;13.028;2023-03-14T14:25:44;1.80;;;0.55;;
63324;SDS011;49451;52.390;13.028;2023-03-14T14:33:37;1.00;;;0.40;;
63324;SDS011;49451;52.390;13.028;2023-03-14T14:36:11;4.70;;;0.43;;
63324;SDS011;49451;52.390;13.028;2023-03-14T14:38:39;1.80;;;0.50;;
63324;SDS011;49451;52.390;13.028;2023-03-14T14:41:05;2.15;;;0.20;;
63324;SDS011;49451;52.390;13.028;2023-03-14T14:43:30;0.43;;;0.30;;
63324;SDS011;49451;52.390;13.028;2023-03-14T14:46:05;2.58;;;0.47;;
63324;SDS011;49451;52.390;13.028;2023-03-14T14:48:35;1.05;;;0.40;;
63324;SDS011;49451;52.390;13.028;2023-03-14T14:51:03;1.77;;;0.38;;
63324;SDS011;49451;52.390;13.028;2023-03-14T14:53:37;2.30;;;0.40;;
63324;SDS011;49451;52.390;13.028;2023-03-14T14:56:24;1.55;;;0.30;;
63324;SDS011;49451;52.390;13.028;2023-03-14T14:58:55;8.02;;;0.57;;
63324;SDS011;49451;52.390;13.028;2023-03-14T15:01:24;6.68;;;0.50;;
63324;SDS011;49451;52.390;13.028;2023-03-14T15:03:55;1.27;;;0.30;;
63324;SDS011;49451;52.390;13.028;2023-03-14T15:06:27;4.72;;;0.70;;
63324;SDS011;49451;52.390;13.028;2023-03-14T15:11:24;2.80;;;0.20;;
63324;SDS011;49451;52.390;13.028;2023-03-14T15:13:50;1.13;;;0.10;;
63324;SDS011;49451;52.390;13.028;2023-03-14T15:16:17;0.70;;;0.10;;
63324;SDS011;49451;52.390;13.028;2023-03-14T15:18:44;0.73;;;0.28;;
63324;SDS011;49451;52.390;13.028;2023-03-14T15:21:13;0.40;;;0.10;;
63324;SDS011;49451;52.390;13.028;2023-03-14T15:23:39;3.85;;;1.20;;
63324;SDS011;49451;52.390;13.028;2023-03-14T15:26:11;3.58;;;0.40;;
63324;SDS011;49451;52.390;13.028;2023-03-14T15:28:39;4.22;;;0.93;;
63324;SDS011;49451;52.390;13.028;2023-03-14T15:31:05;4.43;;;1.20;;
63324;SDS011;49451;52.390;13.028;2023-03-14T15:33:34;2.55;;;0.90;;
63324;SDS011;49451;52.390;13.028;2023-03-14T15:35:59;3.50;;;1.35;;
63324;SDS011;49451;52.390;13.028;2023-03-14T15:38:25;9.10;;;1.73;;
63324;SDS011;49451;52.390;13.028;2023-03-14T15:40:51;2.17;;;0.60;;
63324;SDS011;49451;52.390;13.028;2023-03-14T15:43:17;2.50;;;0.30;;
63324;SDS011;49451;52.390;13.028;2023-03-14T15:45:43;0.73;;;0.38;;
63324;SDS011;49451;52.390;13.028;2023-03-14T15:48:14;1.25;;;0.43;;
63324;SDS011;49451;52.390;13.028;2023-03-14T15:50:41;3.30;;;0.98;;
63324;SDS011;49451;52.390;13.028;2023-03-14T15:53:09;2.15;;;0.68;;
63324;SDS011;49451;52.390;13.028;2023-03-14T15:55:35;2.70;;;0.60;;
63324;SDS011;49451;52.390;13.028;2023-03-14T15:58:00;3.33;;;1.05;;
63324;SDS011;49451;52.390;13.028;2023-03-14T16:00:27;1.98;;;0.73;;
63324;SDS011;49451;52.390;13.028;2023-03-14T16:02:54;1.40;;;0.80;;
63324;SDS011;49451;52.390;13.028;2023-03-14T16:05:19;5.47;;;1.63;;
63324;SDS011;49451;52.390;13.028;2023-03-14T16:07:45;5.60;;;1.65;;
63324;SDS011;49451;52.390;13.028;2023-03-14T16:10:11;2.78;;;0.85;;
63324;SDS011;49451;52.390;13.028;2023-03-14T16:12:39;4.22;;;1.20;;
63324;SDS011;49451;52.390;13.028;2023-03-14T16:15:06;2.35;;;1.05;;
63324;SDS011;49451;52.390;13.028;2023-03-14T16:17:34;1.15;;;0.47;;
63324;SDS011;49451;52.390;13.028;2023-03-14T16:20:02;1.92;;;0.90;;
63324;SDS011;49451;52.390;13.028;2023-03-14T16:22:29;1.48;;;0.90;;
63324;SDS011;49451;52.390;13.028;2023-03-14T16:25:02;2.33;;;1.13;;
63324;SDS011;49451;52.390;13.028;2023-03-14T16:27:39;0.65;;;0.65;;
63324;SDS011;49451;52.390;13.028;2023-03-14T16:30:06;0.70;;;0.50;;
63324;SDS011;49451;52.390;13.028;2023-03-14T16:32:32;1.85;;;0.65;;
63324;SDS011;49451;52.390;13.028;2023-03-14T16:34:58;1.02;;;0.50;;
63324;SDS011;49451;52.390;13.028;2023-03-14T16:37:23;3.05;;;0.73;;
63324;SDS011;49451;52.390;13.028;2023-03-14T16:39:51;1.23;;;0.40;;
63324;SDS011;49451;52.390;13.028;2023-03-14T16:42:16;2.10;;;0.68;;
63324;SDS011;49451;52.390;13.028;2023-03-14T16:44:42;1.30;;;0.77;;
63324;SDS011;49451;52.390;13.028;2023-03-14T16:47:07;2.13;;;1.00;;
63324;SDS011;49451;52.390;13.028;2023-03-14T16:49:36;0.73;;;0.50;;
63324;SDS011;49451;52.390;13.028;2023-03-14T17:00:15;2.78;;;0.60;;
63324;SDS011;49451;52.390;13.028;2023-03-14T17:02:43;1.65;;;0.57;;
63324;SDS011;49451;52.390;13.028;2023-03-14T17:05:09;3.00;;;0.75;;
63324;SDS011;49451;52.390;13.028;2023-03-14T17:07:54;3.10;;;1.00;;
63324;SDS011;49451;52.390;13.028;2023-03-14T17:10:34;3.38;;;0.80;;
63324;SDS011;49451;52.390;13.028;2023-03-14T17:13:00;5.07;;;1.20;;
63324;SDS011;49451;52.390;13.028;2023-03-14T17:15:25;4.22;;;0.65;;
63324;SDS011;49451;52.390;13.028;2023-03-14T17:17:56;2.85;;;0.93;;
63324;SDS011;49451;52.390;13.028;2023-03-14T17:20:28;4.20;;;0.75;;
63324;SDS011;49451;52.390;13.028;2023-03-14T17:22:58;5.55;;;1.23;;
63324;SDS011;49451;52.390;13.028;2023-03-14T17:25:32;4.60;;;1.40;;
63324;SDS011;49451;52.390;13.028;2023-03-14T17:28:05;6.22;;;1.35;;
63324;SDS011;49451;52.390;13.028;2023-03-14T17:30:31;4.35;;;1.10;;
63324;SDS011;49451;52.390;13.028;2023-03-14T17:32:57;6.07;;;1.60;;
63324;SDS011;49451;52.390;13.028;2023-03-14T17:35:22;6.30;;;1.85;;
63324;SDS011;49451;52.390;13.028;2023-03-14T17:37:48;6.05;;;1.95;;
63324;SDS011;49451;52.390;13.028;2023-03-14T17:40:16;3.90;;;1.10;;
63324;SDS011;49451;52.390;13.028;2023-03-14T17:42:41;5.45;;;1.25;;
63324;SDS011;49451;52.390;13.028;2023-03-14T17:45:07;5.90;;;1.73;;
63324;SDS011;49451;52.390;13.028;2023-03-14T17:47:40;3.00;;;1.25;;
63324;SDS011;49451;52.390;13.028;2023-03-14T17:50:06;6.13;;;1.30;;
63324;SDS011;49451;52.390;13.028;2023-03-14T17:55:09;3.08;;;1.30;;
63324;SDS011;49451;52.390;13.028;2023-03-14T17:57:36;6.50;;;1.33;;
63324;SDS011;49451;52.390;13.028;2023-03-14T18:00:03;6.32;;;1.10;;
63324;SDS011;49451;52.390;13.028;2023-03-14T18:02:33;10.15;;;1.38;;
63324;SDS011;49451;52.390;13.028;2023-03-14T18:04:59;7.90;;;1.45;;
63324;SDS011;49451;52.390;13.028;2023-03-14T18:07:25;7.45;;;1.63;;
63324;SDS011;49451;52.390;13.028;2023-03-14T18:09:51;8.00;;;1.65;;
63324;SDS011;49451;52.390;13.028;2023-03-14T18:15:30;5.88;;;1.33;;
63324;SDS011;49451;52.390;13.028;2023-03-14T18:17:57;10.93;;;2.20;;
63324;SDS011;49451;52.390;13.028;2023-03-14T18:20:26;6.15;;;1.80;;
63324;SDS011;49451;52.390;13.028;2023-03-14T18:22:53;7.97;;;2.25;;
63324;SDS011;49451;52.390;13.028;2023-03-14T18:25:21;5.18;;;1.92;;
63324;SDS011;49451;52.390;13.028;2023-03-14T18:27:46;8.73;;;1.67;;
63324;SDS011;49451;52.390;13.028;2023-03-14T18:30:12;9.15;;;1.65;;
63324;SDS011;49451;52.390;13.028;2023-03-14T18:32:38;13.35;;;1.70;;
63324;SDS011;49451;52.390;13.028;2023-03-14T18:35:04;11.38;;;2.50;;
63324;SDS011;49451;52.390;13.028;2023-03-14T18:37:30;9.13;;;2.00;;
63324;SDS011;49451;52.390;13.028;2023-03-14T18:39:55;8.25;;;2.00;;
63324;SDS011;49451;52.390;13.028;2023-03-14T18:42:21;5.90;;;1.30;;
63324;SDS011;49451;52.390;13.028;2023-03-14T18:44:46;9.07;;;1.70;;
63324;SDS011;49451;52.390;13.028;2023-03-14T18:47:12;13.52;;;2.10;;
63324;SDS011;49451;52.390;13.028;2023-03-14T18:49:37;7.85;;;1.75;;
63324;SDS011;49451;52.390;13.028;2023-03-14T18:52:03;7.70;;;2.10;;
63324;SDS011;49451;52.390;13.028;2023-03-14T18:54:31;15.32;;;1.88;;
63324;SDS011;49451;52.390;13.028;2023-03-14T18:57:22;11.88;;;1.83;;
63324;SDS011;49451;52.390;13.028;2023-03-14T19:06:20;10.15;;;1.63;;
63324;SDS011;49451;52.390;13.028;2023-03-14T19:08:51;12.43;;;1.55;;
63324;SDS011;49451;52.390;13.028;2023-03-14T19:11:16;17.73;;;1.85;;
63324;SDS011;49451;52.390;13.028;2023-03-14T19:13:42;7.10;;;1.33;;
63324;SDS011;49451;52.390;13.028;2023-03-14T19:16:14;13.70;;;2.17;;
63324;SDS011;49451;52.390;13.028;2023-03-14T19:19:04;22.75;;;2.00;;
63324;SDS011;49451;52.390;13.028;2023-03-14T19:21:47;9.27;;;1.58;;
63324;SDS011;49451;52.390;13.028;2023-03-14T19:24:16;10.80;;;2.20;;
63324;SDS011;49451;52.390;13.028;2023-03-14T19:26:51;10.38;;;2.97;;
63324;SDS011;49451;52.390;13.028;2023-03-14T19:29:17;9.75;;;1.63;;
63324;SDS011;49451;52.390;13.028;2023-03-14T19:31:42;14.48;;;1.67;;
63324;SDS011;49451;52.390;13.028;2023-03-14T19:34:08;9.25;;;1.42;;
63324;SDS011;49451;52.390;13.028;2023-03-14T19:36:42;10.77;;;1.77;;
63324;SDS011;49451;52.390;13.028;2023-03-14T19:39:08;7.40;;;1.75;;
63324;SDS011;49451;52.390;13.028;2023-03-14T19:41:33;7.95;;;1.88;;
63324;SDS011;49451;52.390;13.028;2023-03-14T19:43:59;14.18;;;2.78;;
63324;SDS011;49451;52.390;13.028;2023-03-14T19:46:25;10.98;;;1.90;;
63324;SDS011;49451;52.390;13.028;2023-03-14T19:48:56;16.95;;;2.55;;
63324;SDS011;49451;52.390;13.028;2023-03-14T19:51:22;10.07;;;2.10;;
63324;SDS011;49451;52.390;13.028;2023-03-14T19:53:48;8.43;;;1.52;;
63324;SDS011;49451;52.390;13.028;2023-03-14T19:56:13;9.65;;;1.35;;
63324;SDS011;49451;52.390;13.028;2023-03-14T19:58:39;9.57;;;2.20;;
63324;SDS011;49451;52.390;13.028;2023-03-14T20:01:05;17.73;;;1.65;;
63324;SDS011;49451;52.390;13.028;2023-03-14T20:03:32;8.95;;;1.58;;
63324;SDS011;49451;52.390;13.028;2023-03-14T20:06:07;9.52;;;2.03;;
63324;SDS011;49451;52.390;13.028;2023-03-14T20:08:41;9.85;;;1.98;;
63324;SDS011;49451;52.390;13.028;2023-03-14T20:13:38;9.18;;;1.05;;
63324;SDS011;49451;52.390;13.028;2023-03-14T20:16:05;10.45;;;1.35;;
63324;SDS011;49451;52.390;13.028;2023-03-14T20:18:34;10.90;;;1.58;;
63324;SDS011;49451;52.390;13.028;2023-03-14T20:20:59;10.27;;;1.45;;